Time;durP1;ratioP1;P1;durP2;ratioP2;P2;SDS_P1;SDS_P2;PMS_P1;PMS_P2;Temp;Humidity;BMP_temperature;BMP_pressure;BME280_temperature;BME280_humidity;BME280_pressure;Samples;Min_cycle;Max_cycle;Signal;HPM_P1;HPM_P2
2022/07/04 07:31:18;;;;;;;3.30;2.90;;;;;;;;;;6216307;23;20144;-78
2022/07/04 08:33:32;;;;;;;2.92;2.60;;;;;;;;;;6194017;23;20035;-75
2022/07/04 08:35:58;;;;;;;2.90;2.67;;;;;;;;;;6216476;23;20016;-76
2022/07/04 08:38:24;;;;;;;3.33;2.53;;;;;;;;;;6190566;23;20020;-79
2022/07/04 08:40:56;;;;;;;2.80;2.60;;;;;;;;;;6217359;23;20005;-79
2022/07/04 08:43:23;;;;;;;6.53;3.47;;;;;;;;;;6217380;23;20379;-79
2022/07/04 08:45:52;;;;;;;3.38;3.08;;;;;;;;;;6217220;23;20000;-77
2022/07/04 08:48:23;;;;;;;4.32;3.17;;;;;;;;;;6217065;23;20008;-77
2022/07/04 08:50:53;;;;;;;3.60;2.97;;;;;;;;;;6216974;23;20004;-77
2022/07/04 08:53:20;;;;;;;4.32;2.88;;;;;;;;;;6216882;23;20091;-75
2022/07/04 08:58:33;;;;;;;2.90;2.70;;;;;;;;;;6216843;23;20043;-78
2022/07/04 09:01:01;;;;;;;3.53;2.70;;;;;;;;;;6216704;23;20000;-77
2022/07/04 09:03:28;;;;;;;6.35;2.70;;;;;;;;;;6217090;23;20316;-76
2022/07/04 09:05:54;;;;;;;3.95;3.10;;;;;;;;;;6216951;23;20023;-76
2022/07/04 09:08:20;;;;;;;3.53;2.80;;;;;;;;;;6216816;23;20084;-76
2022/07/04 09:10:47;;;;;;;3.10;2.80;;;;;;;;;;6216628;23;20393;-77
2022/07/04 09:13:14;;;;;;;3.03;2.78;;;;;;;;;;6216654;23;20423;-77
2022/07/04 09:15:46;;;;;;;3.65;3.00;;;;;;;;;;6216762;23;20008;-77
2022/07/04 09:18:22;;;;;;;2.60;2.40;;;;;;;;;;6216771;23;20005;-77
2022/07/04 09:20:48;;;;;;;3.60;2.45;;;;;;;;;;6216833;23;20008;-76
2022/07/04 09:23:18;;;;;;;4.05;2.80;;;;;;;;;;6216805;23;20005;-75
2022/07/04 09:25:44;;;;;;;3.10;2.80;;;;;;;;;;6216648;23;20439;-76
2022/07/04 09:28:10;;;;;;;3.03;2.70;;;;;;;;;;6216713;23;20371;-75
2022/07/04 09:30:50;;;;;;;4.95;2.53;;;;;;;;;;6216879;23;20005;-78
2022/07/04 09:33:18;;;;;;;3.10;2.80;;;;;;;;;;6216721;23;20001;-77
2022/07/04 09:35:44;;;;;;;5.47;2.88;;;;;;;;;;6216413;23;20012;-78
2022/07/04 09:38:11;;;;;;;3.15;2.67;;;;;;;;;;6216400;23;20439;-78
2022/07/04 09:43:24;;;;;;;3.20;2.92;;;;;;;;;;6216621;23;20011;-77
2022/07/04 09:45:58;;;;;;;2.70;2.55;;;;;;;;;;6216605;23;20011;-78
2022/07/04 09:48:24;;;;;;;6.65;2.60;;;;;;;;;;6216488;23;20420;-78
2022/07/04 09:50:50;;;;;;;4.28;2.90;;;;;;;;;;6216585;23;20040;-78
2022/07/04 09:53:16;;;;;;;4.72;2.83;;;;;;;;;;6216678;23;20008;-78
2022/07/04 09:55:41;;;;;;;3.03;2.83;;;;;;;;;;6216576;23;20467;-78
2022/07/04 09:58:09;;;;;;;3.45;2.75;;;;;;;;;;6216623;23;20012;-78
2022/07/04 10:00:37;;;;;;;3.58;2.90;;;;;;;;;;6216370;23;20434;-77
2022/07/04 10:03:32;;;;;;;3.13;2.80;;;;;;;;;;6216345;23;20081;-78
2022/07/04 10:06:13;;;;;;;3.15;2.95;;;;;;;;;;6216252;23;20004;-78
2022/07/04 10:08:40;;;;;;;3.80;3.50;;;;;;;;;;6216026;23;20014;-77
2022/07/04 10:11:06;;;;;;;4.70;4.10;;;;;;;;;;6189399;23;20013;-77
2022/07/04 10:13:32;;;;;;;4.18;3.78;;;;;;;;;;6189348;23;20005;-78
2022/07/04 10:15:59;;;;;;;3.40;3.10;;;;;;;;;;6216044;23;20012;-78
2022/07/04 10:18:25;;;;;;;3.65;3.28;;;;;;;;;;6189585;23;20043;-76
2022/07/04 10:20:53;;;;;;;3.60;3.30;;;;;;;;;;6216073;23;19996;-76
2022/07/04 10:23:20;;;;;;;3.38;2.90;;;;;;;;;;6215997;23;20435;-76
2022/07/04 10:25:48;;;;;;;4.40;3.22;;;;;;;;;;6216162;23;20007;-77
2022/07/04 10:28:13;;;;;;;3.65;3.28;;;;;;;;;;6216476;23;20039;-77
2022/07/04 10:30:40;;;;;;;3.95;3.05;;;;;;;;;;6189363;23;20371;-76
2022/07/04 10:33:08;;;;;;;6.32;3.53;;;;;;;;;;6190311;23;20489;-79
2022/07/04 10:36:04;;;;;;;5.10;3.78;;;;;;;;;;6215861;23;20207;-79
2022/07/04 10:38:31;;;;;;;4.50;3.55;;;;;;;;;;6215997;23;20466;-78
2022/07/04 10:41:04;;;;;;;5.82;3.72;;;;;;;;;;6216155;23;20128;-78
2022/07/04 10:43:30;;;;;;;6.07;3.60;;;;;;;;;;6216080;23;20438;-78
2022/07/04 10:46:10;;;;;;;7.07;4.10;;;;;;;;;;6216081;23;20005;-77
2022/07/04 10:48:36;;;;;;;6.28;3.42;;;;;;;;;;6216203;23;20001;-77
2022/07/04 10:51:01;;;;;;;4.07;3.33;;;;;;;;;;6215817;23;20000;-80
2022/07/04 10:53:28;;;;;;;5.20;3.22;;;;;;;;;;6215922;23;20031;-79
2022/07/04 10:56:02;;;;;;;5.93;3.38;;;;;;;;;;6216076;23;20001;-78
2022/07/04 10:58:42;;;;;;;5.22;3.60;;;;;;;;;;6216075;23;20438;-78
2022/07/04 11:01:16;;;;;;;4.70;3.70;;;;;;;;;;6216031;23;20084;-79
2022/07/04 11:03:52;;;;;;;3.72;3.13;;;;;;;;;;6215729;23;20007;-80
2022/07/04 11:06:43;;;;;;;3.70;2.72;;;;;;;;;;6216076;23;20008;-79
2022/07/04 11:09:19;;;;;;;5.78;2.67;;;;;;;;;;6203497;23;20012;-78
2022/07/04 11:11:47;;;;;;;3.03;2.30;;;;;;;;;;6215853;23;19996;-80
2022/07/04 11:14:41;;;;;;;2.80;2.60;;;;;;;;;;6215846;23;20013;-80
2022/07/04 11:17:15;;;;;;;4.15;2.65;;;;;;;;;;6215831;23;20428;-79
2022/07/04 11:19:41;;;;;;;3.28;2.58;;;;;;;;;;6215932;23;20004;-79
2022/07/04 11:22:09;;;;;;;2.70;2.50;;;;;;;;;;6215893;23;19997;-79
2022/07/04 11:24:35;;;;;;;4.47;2.57;;;;;;;;;;6216003;23;20007;-79
2022/07/04 11:27:02;;;;;;;2.80;2.50;;;;;;;;;;6216361;23;20004;-79
2022/07/04 11:29:28;;;;;;;3.15;2.15;;;;;;;;;;6217814;23;20072;-80
2022/07/04 11:31:55;;;;;;;3.53;2.25;;;;;;;;;;6217958;23;20363;-79
2022/07/04 11:34:21;;;;;;;2.65;2.45;;;;;;;;;;6217268;23;20013;-80
2022/07/04 11:36:49;;;;;;;4.88;2.20;;;;;;;;;;6217804;23;20011;-80
2022/07/04 11:39:19;;;;;;;2.73;2.27;;;;;;;;;;6217784;23;19992;-80
2022/07/04 16:51:50;;;;;;;10.30;3.20;;;;;;;;;;6214527;23;20017;-80
2022/07/04 16:54:15;;;;;;;2.63;2.42;;;;;;;;;;6216938;23;20447;-83
2022/07/04 16:56:41;;;;;;;2.92;2.35;;;;;;;;;;6216990;23;20374;-80
2022/07/04 16:59:06;;;;;;;2.50;2.30;;;;;;;;;;6216723;23;20403;-80
2022/07/04 17:01:32;;;;;;;3.33;2.40;;;;;;;;;;6217120;23;20001;-77
2022/07/04 17:03:57;;;;;;;2.33;2.13;;;;;;;;;;6217336;23;20369;-78
2022/07/04 17:06:22;;;;;;;4.25;2.78;;;;;;;;;;6217095;23;20336;-79
2022/07/04 17:08:48;;;;;;;4.45;2.50;;;;;;;;;;6216777;23;20011;-79
2022/07/04 17:11:14;;;;;;;2.60;2.40;;;;;;;;;;6216972;23;19996;-79
2022/07/04 17:13:43;;;;;;;3.40;2.22;;;;;;;;;;6216582;23;20005;-79
2022/07/04 17:16:08;;;;;;;3.50;2.38;;;;;;;;;;6217074;23;20001;-79
2022/07/04 17:18:34;;;;;;;3.45;2.70;;;;;;;;;;6216511;23;20324;-79
2022/07/04 17:20:59;;;;;;;2.33;2.13;;;;;;;;;;6216670;23;20104;-79
2022/07/04 17:23:25;;;;;;;3.10;2.58;;;;;;;;;;6216875;23;20470;-78
2022/07/04 17:25:51;;;;;;;4.15;3.67;;;;;;;;;;6216608;23;20001;-81
2022/07/04 17:28:17;;;;;;;3.85;2.42;;;;;;;;;;6216471;23;20087;-78
2022/07/04 17:30:43;;;;;;;3.65;3.35;;;;;;;;;;6216596;23;20004;-77
2022/07/04 17:33:10;;;;;;;2.75;2.55;;;;;;;;;;6216923;23;20087;-78
2022/07/04 17:35:37;;;;;;;2.88;2.67;;;;;;;;;;6216789;23;20542;-78
2022/07/04 17:38:03;;;;;;;4.28;2.50;;;;;;;;;;6216655;23;20323;-80
2022/07/04 17:40:28;;;;;;;2.45;2.30;;;;;;;;;;6216522;23;20004;-79
2022/07/04 17:42:54;;;;;;;1.83;1.73;;;;;;;;;;6216496;23;20028;-78
2022/07/04 17:45:19;;;;;;;2.75;2.20;;;;;;;;;;6216681;23;20420;-78
2022/07/04 17:47:45;;;;;;;2.15;1.85;;;;;;;;;;6216499;23;20008;-79
2022/07/04 17:50:11;;;;;;;3.65;2.22;;;;;;;;;;6216755;23;20001;-80
2022/07/04 17:52:36;;;;;;;2.40;2.20;;;;;;;;;;6216218;23;20012;-78
2022/07/04 17:55:02;;;;;;;4.47;2.50;;;;;;;;;;6216384;23;20413;-79
2022/07/04 17:57:27;;;;;;;3.38;2.45;;;;;;;;;;6189744;23;20079;-80
2022/07/04 17:59:53;;;;;;;4.28;2.67;;;;;;;;;;6216921;23;20004;-82
2022/07/04 18:02:18;;;;;;;3.38;2.28;;;;;;;;;;6216284;23;20076;-79
2022/07/04 18:04:44;;;;;;;2.60;2.42;;;;;;;;;;6216305;23;20039;-80
2022/07/04 18:07:10;;;;;;;2.42;2.22;;;;;;;;;;6216224;23;20007;-78
2022/07/04 18:09:36;;;;;;;5.18;2.40;;;;;;;;;;6216277;23;20034;-80
2022/07/04 18:12:01;;;;;;;3.42;2.30;;;;;;;;;;6216176;23;20024;-80
2022/07/04 18:14:27;;;;;;;8.88;2.45;;;;;;;;;;6216454;23;20004;-78
2022/07/04 18:16:52;;;;;;;6.90;2.15;;;;;;;;;;6216427;23;19997;-78
2022/07/04 18:19:18;;;;;;;8.20;2.60;;;;;;;;;;6216134;23;20001;-78
2022/07/04 18:21:43;;;;;;;7.03;2.25;;;;;;;;;;6216334;23;20297;-77
2022/07/04 18:24:13;;;;;;;12.15;2.60;;;;;;;;;;6216183;23;20005;-75
2022/07/04 18:26:40;;;;;;;10.93;2.97;;;;;;;;;;6216023;23;20478;-77
2022/07/04 18:29:06;;;;;;;11.40;2.67;;;;;;;;;;6216102;23;20015;-76
2022/07/04 18:31:31;;;;;;;10.77;3.30;;;;;;;;;;6216340;23;20084;-80
2022/07/04 18:33:57;;;;;;;16.40;3.50;;;;;;;;;;6216191;23;20043;-77
2022/07/04 18:36:22;;;;;;;10.98;3.08;;;;;;;;;;6215899;23;20008;-77
2022/07/04 18:38:48;;;;;;;11.00;2.78;;;;;;;;;;6215966;23;20058;-78
2022/07/04 18:43:58;;;;;;;7.10;2.70;;;;;;;;;;6216308;23;20008;-79
2022/07/04 18:46:24;;;;;;;13.88;4.85;;;;;;;;;;6216247;23;20005;-78
2022/07/04 18:48:50;;;;;;;9.88;3.50;;;;;;;;;;6216148;23;20027;-78
2022/07/04 18:51:18;;;;;;;10.73;4.13;;;;;;;;;;6215878;23;20336;-79
2022/07/04 18:53:44;;;;;;;4.65;2.65;;;;;;;;;;6216110;23;20036;-78
2022/07/04 18:56:10;;;;;;;9.25;3.25;;;;;;;;;;6216255;23;20064;-77
2022/07/04 18:58:36;;;;;;;11.23;3.42;;;;;;;;;;6216077;23;20004;-77
2022/07/04 19:01:02;;;;;;;11.85;3.28;;;;;;;;;;6216224;23;20320;-77
2022/07/04 19:03:28;;;;;;;9.80;2.90;;;;;;;;;;6215881;23;20012;-77
2022/07/04 19:05:53;;;;;;;12.15;3.35;;;;;;;;;;6215619;23;20001;-77
2022/07/04 19:08:19;;;;;;;9.75;4.15;;;;;;;;;;6215818;23;20004;-77
2022/07/04 19:10:44;;;;;;;10.00;3.88;;;;;;;;;;6216076;23;20329;-78
2022/07/04 19:13:11;;;;;;;14.30;3.70;;;;;;;;;;6215996;23;20047;-78
2022/07/04 19:15:39;;;;;;;7.65;3.38;;;;;;;;;;6215710;23;20428;-79
2022/07/04 19:18:04;;;;;;;11.20;3.28;;;;;;;;;;6216001;23;20412;-79
2022/07/04 19:20:30;;;;;;;13.65;2.90;;;;;;;;;;6215913;23;20072;-77
2022/07/04 19:22:56;;;;;;;10.15;3.38;;;;;;;;;;6216255;23;20005;-78
2022/07/04 19:25:22;;;;;;;7.93;3.40;;;;;;;;;;6215784;23;20001;-77
2022/07/04 19:27:48;;;;;;;8.73;3.42;;;;;;;;;;6216243;23;20011;-76
2022/07/04 19:30:13;;;;;;;6.78;3.08;;;;;;;;;;6216171;23;20079;-78
2022/07/04 19:32:39;;;;;;;6.00;3.15;;;;;;;;;;6189168;23;20005;-78
2022/07/04 19:35:06;;;;;;;6.95;3.13;;;;;;;;;;6216027;23;20008;-78
2022/07/04 19:37:32;;;;;;;10.02;3.25;;;;;;;;;;6215836;23;20008;-78
2022/07/04 19:39:58;;;;;;;5.70;3.10;;;;;;;;;;6189317;23;20066;-78
2022/07/04 19:42:23;;;;;;;8.73;2.65;;;;;;;;;;6215682;23;20001;-80
2022/07/04 19:44:50;;;;;;;3.63;2.83;;;;;;;;;;6215882;23;20032;-81
2022/07/04 19:47:20;;;;;;;6.15;2.92;;;;;;;;;;6215804;23;20015;-80
2022/07/04 19:49:46;;;;;;;4.28;2.83;;;;;;;;;;6217905;23;20008;-79
2022/07/04 19:55:10;;;;;;;4.93;2.92;;;;;;;;;;6217622;23;20019;-81
2022/07/04 19:57:40;;;;;;;5.80;3.00;;;;;;;;;;6217677;23;20015;-78
2022/07/04 20:00:07;;;;;;;5.05;2.90;;;;;;;;;;6217408;23;20004;-80
2022/07/04 20:02:34;;;;;;;8.75;3.88;;;;;;;;;;6217987;23;20072;-84
2022/07/04 20:05:00;;;;;;;6.15;3.92;;;;;;;;;;6190958;23;20004;-83
2022/07/04 20:07:26;;;;;;;7.28;3.92;;;;;;;;;;6190912;23;20339;-83
2022/07/04 20:09:51;;;;;;;5.38;3.50;;;;;;;;;;6190811;23;20009;-82
2022/07/04 20:12:18;;;;;;;4.68;3.05;;;;;;;;;;6217569;23;20005;-81
2022/07/04 20:14:45;;;;;;;5.30;2.90;;;;;;;;;;6217273;23;20070;-77
2022/07/04 20:17:29;;;;;;;7.18;3.10;;;;;;;;;;6217701;23;20368;-80
2022/07/04 20:19:56;;;;;;;4.97;3.00;;;;;;;;;;6217355;23;20008;-78
2022/07/04 20:22:22;;;;;;;6.80;3.38;;;;;;;;;;6190938;23;20024;-78
2022/07/04 20:24:50;;;;;;;6.28;2.88;;;;;;;;;;6217409;23;20074;-80
2022/07/04 20:27:18;;;;;;;5.50;2.95;;;;;;;;;;6217108;23;20009;-78
2022/07/04 20:29:44;;;;;;;5.55;3.33;;;;;;;;;;6217468;23;20004;-79
2022/07/04 20:32:11;;;;;;;3.13;2.83;;;;;;;;;;6217282;23;20022;-79
2022/07/04 20:34:37;;;;;;;4.88;3.00;;;;;;;;;;6217440;23;20032;-78
2022/07/04 20:37:03;;;;;;;5.78;2.92;;;;;;;;;;6190524;23;20004;-77
2022/07/04 20:39:29;;;;;;;8.35;2.97;;;;;;;;;;6217204;23;20337;-78
2022/07/04 20:41:55;;;;;;;4.93;2.95;;;;;;;;;;6217208;23;20008;-79
2022/07/04 20:44:21;;;;;;;5.22;2.95;;;;;;;;;;6217420;23;20012;-78
2022/07/04 20:46:47;;;;;;;5.35;3.33;;;;;;;;;;6190362;23;20011;-78
2022/07/04 20:49:12;;;;;;;4.38;2.88;;;;;;;;;;6217104;23;20032;-78
2022/07/04 20:51:41;;;;;;;4.95;3.10;;;;;;;;;;6217018;23;20336;-78
2022/07/04 20:54:08;;;;;;;3.38;3.00;;;;;;;;;;6217265;23;20008;-79
2022/07/04 20:56:33;;;;;;;4.40;3.03;;;;;;;;;;6190557;23;20004;-78
2022/07/04 20:58:58;;;;;;;6.18;3.78;;;;;;;;;;6216950;23;20305;-78
2022/07/04 21:01:24;;;;;;;5.75;3.30;;;;;;;;;;6217198;23;20138;-78
2022/07/04 21:03:49;;;;;;;4.25;3.03;;;;;;;;;;6216987;23;20004;-80
2022/07/04 21:06:15;;;;;;;5.13;3.17;;;;;;;;;;6217202;23;20000;-78
2022/07/04 21:08:40;;;;;;;3.58;3.10;;;;;;;;;;6216976;23;20043;-78
2022/07/04 21:11:05;;;;;;;4.13;2.80;;;;;;;;;;6217023;23;20035;-81
2022/07/04 21:13:31;;;;;;;5.95;3.20;;;;;;;;;;6216582;23;20001;-77
2022/07/04 21:15:56;;;;;;;3.78;3.00;;;;;;;;;;6217056;23;20012;-77
2022/07/04 21:18:22;;;;;;;4.13;2.67;;;;;;;;;;6216815;23;19996;-78
